Time;durP1;ratioP1;P1;durP2;ratioP2;P2;SDS_P1;SDS_P2;PMS_P1;PMS_P2;Temp;Humidity;BMP_temperature;BMP_pressure;BME280_temperature;BME280_humidity;BME280_pressure;Samples;Min_cycle;Max_cycle;Signal;HPM_P1;HPM_P2
2022/12/29 00:01:29;;;;;;;1.97;1.87;;;8.40;41.10;;;;;;10403096;28;20241;-77
2022/12/29 00:06:32;;;;;;;2.20;2.00;;;8.50;40.60;;;;;;10387869;28;20233;-77
2022/12/29 00:11:35;;;;;;;2.03;1.93;;;8.70;40.50;;;;;;10393513;28;20962;-76
2022/12/29 00:16:43;;;;;;;2.50;2.30;;;8.80;40.40;;;;;;10388431;28;20717;-77
2022/12/29 00:54:25;;;;;;;2.40;2.20;;;8.90;40.70;;;;;;10263499;28;20940;-77
2022/12/29 00:59:28;;;;;;;2.40;2.20;;;8.90;40.00;;;;;;10363058;28;20231;-77
2022/12/29 01:04:33;;;;;;;2.23;2.13;;;8.80;39.90;;;;;;10392905;28;20225;-77
2022/12/29 01:14:56;;;;;;;2.37;1.97;;;8.80;39.90;;;;;;10392173;28;20642;-77
2022/12/29 01:20:01;;;;;;;2.13;2.03;;;8.80;39.90;;;;;;10393758;28;20218;-77
2022/12/29 01:25:05;;;;;;;3.50;2.30;;;8.80;39.90;;;;;;10386259;28;20232;-77
2022/12/29 01:30:10;;;;;;;2.50;2.13;;;8.80;39.90;;;;;;10393052;28;20639;-76
2022/12/29 01:35:14;;;;;;;2.30;2.10;;;8.80;39.50;;;;;;10379275;28;20720;-76
2022/12/29 01:40:20;;;;;;;3.20;2.10;;;8.70;39.50;;;;;;10389153;28;20801;-76
2022/12/29 01:45:23;;;;;;;2.37;2.17;;;8.60;39.70;;;;;;10393158;28;20717;-77
2022/12/29 01:50:31;;;;;;;2.20;2.10;;;8.60;39.70;;;;;;10380364;28;20332;-77
2022/12/29 01:55:45;;;;;;;2.13;1.93;;;8.60;39.20;;;;;;10397309;28;20218;-77
2022/12/29 02:00:49;;;;;;;1.90;1.80;;;8.60;39.00;;;;;;10392106;28;20238;-77
2022/12/29 02:06:01;;;;;;;3.83;3.53;;;8.50;39.70;;;;;;10394020;28;20288;-77
2022/12/29 02:11:04;;;;;;;6.10;5.50;;;8.50;39.00;;;;;;10385749;28;20226;-77
2022/12/29 02:16:19;;;;;;;3.70;3.40;;;8.50;39.60;;;;;;10382639;28;20709;-77
2022/12/29 02:21:55;;;;;;;2.60;2.40;;;8.50;39.00;;;;;;10383276;28;20315;-77
2022/12/29 02:27:30;;;;;;;2.00;1.90;;;8.40;38.80;;;;;;10389463;28;20230;-77
2022/12/29 02:32:44;;;;;;;2.53;2.13;;;8.40;39.00;;;;;;10395005;28;20226;-77
2022/12/29 02:37:59;;;;;;;2.63;2.40;;;8.40;39.50;;;;;;10386203;28;20237;-77
2022/12/29 02:43:07;;;;;;;3.70;2.20;;;8.50;39.20;;;;;;10384072;28;20233;-76
2022/12/29 02:48:19;;;;;;;2.00;1.80;;;8.60;39.70;;;;;;10382653;28;20241;-72
2022/12/29 02:54:40;;;;;;;2.13;1.77;;;8.60;39.10;;;;;;10378940;28;20253;-72
2022/12/29 02:58:46;;;;;;;2.57;1.80;;;8.70;39.80;;;;;;10373739;28;20236;-72
2022/12/29 03:04:02;;;;;;;1.80;1.70;;;8.80;39.90;;;;;;10376953;28;20246;-72
2022/12/29 03:09:15;;;;;;;1.67;1.57;;;8.80;38.90;;;;;;10385771;28;20228;-72
2022/12/29 03:19:54;;;;;;;1.40;1.30;;;9.00;38.60;;;;;;10382614;28;20229;-72
2022/12/29 03:25:02;;;;;;;1.20;1.10;;;9.10;39.00;;;;;;10386014;28;20641;-72
2022/12/29 03:30:07;;;;;;;1.10;1.10;;;9.20;39.00;;;;;;10381310;28;20218;-72
2022/12/29 03:35:14;;;;;;;1.40;1.30;;;9.40;39.10;;;;;;10381737;28;20222;-72
2022/12/29 03:40:18;;;;;;;1.20;1.10;;;9.50;38.50;;;;;;10384300;28;20276;-72
2022/12/29 03:45:22;;;;;;;1.10;1.10;;;9.60;38.60;;;;;;10386228;28;20693;-72
2022/12/29 03:50:26;;;;;;;1.30;1.20;;;9.80;38.70;;;;;;10380480;28;20284;-72
2022/12/29 03:55:29;;;;;;;1.07;1.00;;;10.00;37.10;;;;;;10380049;28;20743;-72
2022/12/29 04:00:32;;;;;;;1.33;1.23;;;10.10;37.10;;;;;;10377224;28;20230;-72
2022/12/29 04:05:37;;;;;;;1.47;1.20;;;10.20;36.80;;;;;;10382103;28;20221;-72
2022/12/29 04:10:41;;;;;;;1.00;0.90;;;10.30;36.60;;;;;;10377170;28;20227;-72
2022/12/29 04:15:45;;;;;;;1.93;1.20;;;10.40;36.80;;;;;;10384934;28;20229;-72
2022/12/29 04:21:02;;;;;;;0.90;0.90;;;10.50;36.80;;;;;;10382903;28;20225;-72
2022/12/29 04:26:07;;;;;;;1.90;1.10;;;10.50;36.30;;;;;;10375697;28;20229;-72
2022/12/29 04:31:10;;;;;;;1.37;0.90;;;10.60;36.30;;;;;;10380978;28;20229;-72
2022/12/29 04:36:15;;;;;;;1.97;1.00;;;10.60;36.50;;;;;;10384563;28;20721;-72
2022/12/29 04:41:20;;;;;;;1.30;1.20;;;10.70;36.00;;;;;;10375064;28;20792;-72
2022/12/29 04:46:23;;;;;;;1.20;1.10;;;10.70;36.20;;;;;;10385330;28;20226;-72
2022/12/29 04:51:28;;;;;;;1.20;1.10;;;10.70;35.90;;;;;;10378477;28;20237;-72
2022/12/29 04:56:31;;;;;;;1.10;1.00;;;10.70;35.60;;;;;;10381146;28;20226;-72
2022/12/29 05:01:34;;;;;;;1.40;1.10;;;10.80;36.10;;;;;;10375413;28;20225;-72
2022/12/29 05:06:39;;;;;;;1.27;1.17;;;10.80;35.70;;;;;;10370973;28;20222;-72
2022/12/29 05:11:42;;;;;;;1.53;1.13;;;10.80;35.60;;;;;;10376362;28;20276;-72
2022/12/29 05:16:45;;;;;;;1.77;1.10;;;10.80;35.80;;;;;;10382513;28;20229;-72
2022/12/29 05:21:50;;;;;;;1.80;1.60;;;10.80;35.80;;;;;;10374006;28;20233;-72
2022/12/29 05:26:53;;;;;;;1.50;1.40;;;10.80;35.30;;;;;;10381505;28;20225;-72
2022/12/29 05:31:56;;;;;;;1.10;1.10;;;10.80;35.80;;;;;;10377945;28;20245;-72
2022/12/29 05:37:02;;;;;;;1.20;1.10;;;10.80;35.70;;;;;;10378296;28;20279;-72
2022/12/29 05:42:05;;;;;;;1.20;1.10;;;10.80;35.30;;;;;;10382110;28;20261;-72
2022/12/29 05:47:08;;;;;;;1.30;1.20;;;10.90;35.70;;;;;;10382974;28;20233;-72
2022/12/29 05:52:13;;;;;;;1.30;1.20;;;10.90;35.70;;;;;;10384227;28;20238;-72
2022/12/29 05:57:16;;;;;;;1.60;1.50;;;10.90;35.30;;;;;;10376494;28;20693;-72
2022/12/29 06:02:19;;;;;;;1.80;1.30;;;10.90;35.60;;;;;;10373721;28;20229;-72
2022/12/29 06:07:24;;;;;;;1.33;1.30;;;10.90;35.50;;;;;;10377735;28;20228;-72
2022/12/29 06:12:27;;;;;;;1.57;1.37;;;10.80;35.00;;;;;;10375139;28;20230;-72
2022/12/29 06:17:30;;;;;;;1.00;1.00;;;10.90;35.30;;;;;;10380780;28;20230;-72
2022/12/29 06:22:35;;;;;;;1.80;1.30;;;10.90;36.00;;;;;;10373337;28;20234;-72
2022/12/29 06:27:38;;;;;;;1.60;1.50;;;10.90;34.80;;;;;;10374583;28;20730;-72
2022/12/29 06:32:41;;;;;;;1.67;1.57;;;10.90;35.20;;;;;;10373021;28;20226;-72
2022/12/29 06:37:45;;;;;;;1.40;1.30;;;10.90;35.10;;;;;;10377229;28;20229;-72
2022/12/29 06:42:49;;;;;;;1.63;1.53;;;10.90;34.70;;;;;;10385896;28;20226;-72
2022/12/29 06:47:52;;;;;;;1.33;1.23;;;10.90;34.70;;;;;;10384896;28;20248;-72
2022/12/29 06:52:56;;;;;;;3.40;1.80;;;11.00;34.80;;;;;;10386236;28;20221;-72
2022/12/29 06:58:00;;;;;;;1.83;1.40;;;11.00;34.70;;;;;;10386656;28;20226;-72
2022/12/29 07:03:03;;;;;;;1.50;1.40;;;11.00;34.80;;;;;;10381234;28;20222;-72
2022/12/29 07:08:08;;;;;;;1.57;1.37;;;11.00;34.80;;;;;;10379615;28;20276;-72
2022/12/29 07:13:11;;;;;;;1.43;1.33;;;11.00;34.70;;;;;;10379343;28;20238;-72
2022/12/29 07:18:14;;;;;;;2.47;1.37;;;11.00;34.80;;;;;;10388500;28;20242;-72
2022/12/29 07:23:20;;;;;;;1.63;1.50;;;11.00;34.80;;;;;;10377008;28;20234;-72
2022/12/29 07:28:23;;;;;;;1.70;1.60;;;11.00;34.60;;;;;;10383951;28;20260;-72
2022/12/29 07:33:29;;;;;;;2.00;1.70;;;11.00;34.80;;;;;;10383612;28;20265;-72
2022/12/29 07:38:33;;;;;;;2.50;1.73;;;10.90;34.60;;;;;;10380242;28;20227;-72
2022/12/29 07:43:36;;;;;;;1.63;1.53;;;10.80;34.40;;;;;;10384514;28;20217;-72
2022/12/29 07:48:39;;;;;;;3.23;1.77;;;10.70;34.60;;;;;;10384274;28;20230;-72
2022/12/29 07:53:44;;;;;;;2.57;1.60;;;10.60;34.80;;;;;;10379472;28;20226;-72
2022/12/29 07:58:47;;;;;;;1.83;1.50;;;10.50;34.60;;;;;;10386372;28;20237;-72
2022/12/29 08:03:50;;;;;;;2.10;1.60;;;10.60;35.00;;;;;;10383063;28;20605;-72
2022/12/29 08:09:01;;;;;;;2.13;1.97;;;10.60;35.20;;;;;;10382422;28;20621;-72
2022/12/29 08:14:14;;;;;;;2.20;2.00;;;10.70;35.20;;;;;;10377281;28;20317;-72
2022/12/29 08:19:17;;;;;;;1.60;1.50;;;10.70;35.40;;;;;;10382371;28;20234;-72
2022/12/29 08:24:22;;;;;;;1.70;1.50;;;10.90;35.40;;;;;;10375099;28;20241;-72
2022/12/29 08:29:26;;;;;;;2.13;1.90;;;11.00;35.30;;;;;;10385020;28;20639;-72
2022/12/29 08:34:29;;;;;;;2.80;1.90;;;11.20;35.60;;;;;;10382602;28;20234;-72
2022/12/29 08:39:34;;;;;;;2.77;1.70;;;11.20;35.60;;;;;;10377846;28;20275;-72
2022/12/29 08:44:37;;;;;;;3.03;2.33;;;11.40;35.80;;;;;;10382416;28;20237;-72
2022/12/29 08:49:40;;;;;;;2.47;2.20;;;11.50;36.00;;;;;;10381068;28;20225;-69
2022/12/29 08:54:45;;;;;;;2.33;2.13;;;11.60;35.80;;;;;;10379808;28;20218;-69
2022/12/29 08:59:48;;;;;;;6.00;3.00;;;11.70;35.80;;;;;;10380341;28;20226;-69
2022/12/29 09:04:51;;;;;;;2.33;2.13;;;11.90;36.20;;;;;;10376694;28;20237;-69
2022/12/29 09:09:56;;;;;;;2.90;2.17;;;12.10;36.30;;;;;;10376801;28;20243;-69
2022/12/29 09:14:59;;;;;;;2.60;2.40;;;12.20;36.80;;;;;;10372113;28;20222;-69
2022/12/29 09:20:02;;;;;;;4.37;3.80;;;12.40;36.30;;;;;;10378785;28;20225;-69
2022/12/29 09:25:08;;;;;;;5.03;3.80;;;12.60;36.20;;;;;;10381053;28;20231;-69
2022/12/29 09:30:14;;;;;;;3.77;3.30;;;12.80;36.00;;;;;;10377673;28;20264;-69
2022/12/29 09:35:17;;;;;;;2.60;2.40;;;12.90;36.00;;;;;;10379773;28;20248;-69
2022/12/29 09:40:29;;;;;;;3.27;1.97;;;13.10;35.90;;;;;;10379000;28;20233;-69
2022/12/29 09:45:37;;;;;;;2.17;1.80;;;13.20;34.80;;;;;;10380669;28;20329;-69
2022/12/29 09:50:41;;;;;;;2.47;1.80;;;13.20;35.10;;;;;;10377927;28;20643;-69
2022/12/29 09:55:50;;;;;;;4.17;2.10;;;13.30;35.40;;;;;;10378865;28;20217;-69
2022/12/29 10:00:59;;;;;;;2.57;2.10;;;13.30;34.80;;;;;;10372750;28;20234;-69
2022/12/29 10:06:10;;;;;;;2.50;2.10;;;13.30;35.10;;;;;;10373832;28;21414;-70
2022/12/29 10:11:27;;;;;;;3.00;2.70;;;13.30;34.80;;;;;;10372240;28;20237;-69
2022/12/29 10:16:36;;;;;;;2.70;2.50;;;13.40;34.80;;;;;;10379317;28;20222;-69
2022/12/29 10:21:54;;;;;;;2.30;2.10;;;13.40;35.20;;;;;;10375948;28;20724;-69
2022/12/29 10:27:00;;;;;;;2.43;1.73;;;13.40;35.10;;;;;;10377384;28;20237;-69
2022/12/29 10:32:06;;;;;;;1.83;1.70;;;13.50;35.30;;;;;;10376070;28;20238;-69
2022/12/29 10:37:18;;;;;;;1.83;1.33;;;13.60;35.20;;;;;;10371117;28;20234;-69
2022/12/29 10:42:28;;;;;;;2.43;1.50;;;13.80;35.00;;;;;;10373765;28;20229;-69
2022/12/29 10:47:35;;;;;;;2.73;1.40;;;14.00;34.60;;;;;;10376544;28;20229;-69
2022/12/29 10:52:40;;;;;;;1.57;1.40;;;14.20;34.60;;;;;;10376658;28;20229;-69
2022/12/29 10:57:46;;;;;;;3.57;1.20;;;14.40;34.50;;;;;;10373135;28;20864;-69
2022/12/29 11:03:29;;;;;;;3.33;1.40;;;14.60;34.40;;;;;;10371936;28;20232;-69
2022/12/29 11:08:37;;;;;;;2.77;1.10;;;14.80;32.00;;;;;;10360646;28;20214;-69
2022/12/29 11:13:50;;;;;;;1.83;1.40;;;14.90;33.60;;;;;;10374511;28;20229;-69
2022/12/29 11:18:53;;;;;;;1.60;1.50;;;15.00;32.80;;;;;;10375254;28;20981;-69
2022/12/29 11:23:59;;;;;;;1.63;1.50;;;15.10;34.00;;;;;;10374016;28;20233;-69
2022/12/29 11:29:24;;;;;;;1.37;1.27;;;15.10;33.50;;;;;;10380601;28;20226;-70
2022/12/29 11:34:32;;;;;;;1.70;1.60;;;15.20;32.70;;;;;;10377018;28;20230;-69
2022/12/29 11:39:40;;;;;;;1.37;1.27;;;15.20;32.80;;;;;;10383437;28;20234;-69
2022/12/29 11:44:46;;;;;;;1.27;1.17;;;15.30;32.40;;;;;;10379275;28;20226;-69
2022/12/29 11:49:52;;;;;;;1.77;1.43;;;15.30;32.60;;;;;;10375814;28;20233;-69
2022/12/29 11:54:56;;;;;;;1.50;1.30;;;15.40;32.50;;;;;;10380092;28;20225;-69
2022/12/29 12:00:03;;;;;;;1.00;1.00;;;15.50;33.80;;;;;;10382058;28;20277;-69
2022/12/29 12:05:26;;;;;;;1.47;1.20;;;15.60;32.60;;;;;;10380760;28;20743;-69
2022/12/29 12:10:38;;;;;;;2.37;1.27;;;15.70;32.70;;;;;;10380436;28;20256;-69
2022/12/29 12:15:48;;;;;;;4.43;1.40;;;15.90;32.90;;;;;;10376015;28;20221;-69
2022/12/29 12:21:05;;;;;;;1.20;1.00;;;16.10;32.30;;;;;;10377577;28;20341;-69
2022/12/29 12:26:14;;;;;;;1.73;1.13;;;16.20;33.00;;;;;;10379104;28;20222;-69
2022/12/29 12:31:28;;;;;;;1.50;1.10;;;16.30;32.30;;;;;;10374672;28;20254;-69
2022/12/29 12:36:56;;;;;;;1.70;1.60;;;16.40;32.00;;;;;;10378780;28;20860;-69
2022/12/29 12:42:13;;;;;;;1.40;1.30;;;16.40;31.60;;;;;;10374053;28;20237;-69
2022/12/29 12:47:45;;;;;;;1.20;1.10;;;16.40;31.60;;;;;;10378981;28;20233;-69
2022/12/29 12:53:11;;;;;;;1.57;1.47;;;16.40;31.30;;;;;;10373860;28;20233;-69
2022/12/29 12:58:23;;;;;;;3.17;1.57;;;16.40;31.90;;;;;;10352124;28;20325;-69
2022/12/29 13:03:39;;;;;;;1.20;1.10;;;16.40;31.40;;;;;;10342043;28;20737;-69
2022/12/29 13:09:14;;;;;;;1.20;1.10;;;16.40;31.50;;;;;;10337703;28;20218;-69
2022/12/29 13:14:32;;;;;;;1.87;1.60;;;16.30;31.50;;;;;;10335554;28;20233;-69
2022/12/29 13:19:42;;;;;;;1.20;1.10;;;16.30;31.20;;;;;;10333748;28;20223;-69
2022/12/29 13:24:57;;;;;;;2.27;1.40;;;16.30;31.40;;;;;;10334889;28;20223;-69
2022/12/29 13:30:04;;;;;;;2.17;1.23;;;16.20;31.00;;;;;;10333020;28;20234;-69
2022/12/29 13:35:23;;;;;;;1.50;1.20;;;16.20;31.60;;;;;;10341780;28;20231;-69
2022/12/29 13:40:29;;;;;;;2.87;1.30;;;16.10;31.30;;;;;;10332364;28;20238;-69
2022/12/29 13:45:35;;;;;;;2.53;2.33;;;16.10;32.30;;;;;;10334325;28;20233;-69
2022/12/29 13:50:41;;;;;;;1.87;1.57;;;16.00;32.10;;;;;;10336901;28;20222;-69
2022/12/29 13:55:52;;;;;;;1.60;1.50;;;16.10;31.90;;;;;;10336750;28;20269;-69
2022/12/29 14:01:01;;;;;;;3.07;2.23;;;16.00;31.40;;;;;;10335237;28;20234;-69
2022/12/29 14:06:16;;;;;;;2.30;1.50;;;16.00;31.80;;;;;;10351164;28;20615;-69
2022/12/29 14:11:25;;;;;;;2.20;1.90;;;16.00;31.40;;;;;;10333810;28;20226;-69
2022/12/29 14:16:32;;;;;;;3.50;2.17;;;15.90;31.80;;;;;;10336758;28;20228;-69
2022/12/29 14:21:37;;;;;;;1.83;1.70;;;15.90;32.20;;;;;;10330560;28;20358;-69
2022/12/29 14:26:40;;;;;;;2.47;1.70;;;15.90;32.00;;;;;;10336470;28;20557;-69
2022/12/29 14:31:44;;;;;;;2.10;1.40;;;15.80;32.40;;;;;;10332140;28;20219;-69
2022/12/29 14:36:56;;;;;;;1.53;1.40;;;15.80;32.40;;;;;;10334448;28;20273;-69
2022/12/29 14:42:06;;;;;;;1.60;1.50;;;15.70;31.50;;;;;;10335356;28;20227;-69
2022/12/29 14:47:09;;;;;;;3.33;2.40;;;15.70;32.00;;;;;;10375406;28;20316;-69
2022/12/29 14:52:21;;;;;;;3.53;3.10;;;15.70;32.80;;;;;;10377608;28;20229;-69
2022/12/29 14:57:37;;;;;;;4.60;3.43;;;15.70;32.20;;;;;;10376542;28;20229;-69
2022/12/29 15:02:45;;;;;;;3.30;3.00;;;15.60;31.90;;;;;;10384538;28;20626;-69
2022/12/29 15:07:50;;;;;;;4.53;4.10;;;15.60;32.70;;;;;;10453332;22;20704;-71
2022/12/29 15:12:54;;;;;;;4.10;3.70;;;15.50;32.50;;;;;;10442867;28;20233;-71
2022/12/29 15:17:57;;;;;;;3.00;2.70;;;15.40;32.50;;;;;;10443695;28;20228;-71
2022/12/29 15:23:04;;;;;;;2.57;1.90;;;15.40;32.50;;;;;;10441656;28;20738;-71
2022/12/29 15:28:08;;;;;;;2.40;2.20;;;15.30;32.40;;;;;;10444579;28;20268;-71
2022/12/29 15:33:19;;;;;;;3.60;2.80;;;15.30;32.40;;;;;;10440726;28;20236;-68
2022/12/29 15:38:26;;;;;;;3.30;3.00;;;15.20;32.30;;;;;;10442089;28;21006;-68
2022/12/29 15:43:50;;;;;;;4.00;3.53;;;15.20;32.30;;;;;;10441902;28;20235;-68
2022/12/29 15:48:54;;;;;;;5.07;4.57;;;15.20;32.30;;;;;;10440295;28;20588;-68
2022/12/29 15:53:59;;;;;;;5.13;4.63;;;15.20;32.30;;;;;;10434884;28;20574;-68
2022/12/29 15:59:02;;;;;;;5.23;4.27;;;15.10;32.20;;;;;;10442033;28;20720;-69
2022/12/29 16:04:09;;;;;;;3.47;3.17;;;15.10;32.20;;;;;;10439419;28;21034;-68
2022/12/29 16:09:19;;;;;;;3.10;2.63;;;15.10;32.20;;;;;;10442429;28;20311;-68
2022/12/29 16:14:28;;;;;;;6.43;5.03;;;15.00;32.10;;;;;;10437618;28;20228;-68
2022/12/29 16:19:36;;;;;;;5.03;4.53;;;14.90;32.00;;;;;;10437913;28;20728;-68
2022/12/29 16:24:41;;;;;;;5.10;4.60;;;14.90;32.20;;;;;;10432851;28;20661;-68
2022/12/29 16:29:45;;;;;;;11.17;9.00;;;14.80;32.40;;;;;;10438088;28;20225;-71
2022/12/29 16:34:48;;;;;;;20.87;14.90;;;14.70;32.40;;;;;;10440164;28;20221;-71
2022/12/29 16:39:52;;;;;;;31.10;20.20;;;14.70;32.50;;;;;;10439112;28;20232;-71
2022/12/29 16:45:05;;;;;;;18.27;14.10;;;14.50;32.30;;;;;;10438861;28;20590;-71
2022/12/29 16:50:13;;;;;;;7.90;6.17;;;14.40;32.40;;;;;;10435849;28;20222;-70
2022/12/29 16:55:19;;;;;;;6.07;4.83;;;14.20;32.50;;;;;;10438152;28;20649;-70
2022/12/29 17:00:24;;;;;;;5.57;4.83;;;14.00;32.70;;;;;;10437909;28;20691;-69
2022/12/29 17:05:27;;;;;;;10.77;9.27;;;13.90;33.70;;;;;;10439938;28;20256;-69
2022/12/29 17:15:51;;;;;;;7.97;6.00;;;13.80;33.30;;;;;;10439562;28;20296;-69
2022/12/29 17:20:54;;;;;;;6.43;5.83;;;13.70;33.40;;;;;;10435275;28;20708;-69
2022/12/29 17:25:59;;;;;;;5.07;4.60;;;13.60;33.70;;;;;;10438224;28;20229;-69
2022/12/29 17:31:04;;;;;;;4.37;3.97;;;13.50;33.90;;;;;;10436113;28;20298;-70
2022/12/29 17:36:08;;;;;;;5.10;4.43;;;13.40;34.10;;;;;;10438768;28;20256;-70
2022/12/29 17:41:15;;;;;;;2.57;1.70;;;13.50;34.50;;;;;;10436613;28;20228;-69
2022/12/29 17:46:18;;;;;;;2.50;2.30;;;13.50;34.60;;;;;;10437970;28;20233;-69
2022/12/29 17:51:22;;;;;;;4.17;3.53;;;13.60;34.70;;;;;;10434076;28;23184;-69
2022/12/29 17:56:26;;;;;;;4.70;3.33;;;13.80;34.60;;;;;;10434429;28;20225;-70
2022/12/29 18:01:30;;;;;;;3.50;3.17;;;13.80;34.40;;;;;;10434511;28;20222;-74
2022/12/29 18:06:40;;;;;;;3.83;2.77;;;13.80;34.20;;;;;;10439333;28;20252;-74
2022/12/29 18:11:45;;;;;;;2.67;2.40;;;13.70;34.20;;;;;;10432490;28;20216;-74
2022/12/29 18:16:49;;;;;;;2.87;1.60;;;13.70;34.40;;;;;;10437046;28;20613;-74
2022/12/29 18:21:52;;;;;;;2.63;1.60;;;13.80;34.50;;;;;;10429298;28;20738;-74
2022/12/29 18:26:56;;;;;;;1.60;1.40;;;13.80;34.60;;;;;;10434629;28;20240;-74
2022/12/29 18:31:59;;;;;;;1.60;1.50;;;13.90;34.50;;;;;;10434239;28;20232;-71
2022/12/29 18:37:02;;;;;;;1.33;1.23;;;14.00;34.60;;;;;;10445374;28;20236;-70
2022/12/29 18:42:07;;;;;;;1.63;1.50;;;14.10;34.50;;;;;;10441377;28;20240;-71
2022/12/29 18:47:10;;;;;;;1.90;1.80;;;14.20;34.50;;;;;;10445485;28;20233;-71
2022/12/29 18:52:13;;;;;;;2.50;2.30;;;14.30;34.30;;;;;;10439449;28;20259;-71
2022/12/29 18:57:18;;;;;;;3.27;2.33;;;14.30;34.20;;;;;;10441850;28;20233;-71
2022/12/29 19:02:21;;;;;;;1.97;1.87;;;14.40;34.20;;;;;;10445642;28;20724;-71
2022/12/29 19:07:24;;;;;;;2.37;1.93;;;14.30;34.10;;;;;;10443721;28;20229;-71
2022/12/29 19:12:28;;;;;;;1.93;1.83;;;14.30;34.10;;;;;;10438753;28;20644;-71
2022/12/29 19:17:31;;;;;;;2.30;2.10;;;14.30;34.00;;;;;;10443049;28;20245;-70
2022/12/29 19:22:34;;;;;;;2.10;1.87;;;14.30;34.10;;;;;;10438995;28;20225;-71
2022/12/29 19:27:39;;;;;;;3.90;3.53;;;14.30;34.10;;;;;;10445714;28;20649;-71
2022/12/29 19:32:42;;;;;;;2.93;2.70;;;14.30;34.00;;;;;;10442725;28;20225;-71
2022/12/29 19:37:45;;;;;;;2.50;2.33;;;14.20;34.00;;;;;;10443973;28;20239;-71
2022/12/29 19:42:50;;;;;;;2.50;2.30;;;14.30;34.00;;;;;;10442423;28;20236;-71
2022/12/29 19:47:53;;;;;;;4.10;3.63;;;14.20;34.00;;;;;;10437492;28;20484;-71
2022/12/29 19:52:57;;;;;;;3.90;3.50;;;14.20;34.00;;;;;;10444867;28;20693;-71
2022/12/29 19:58:08;;;;;;;4.00;3.60;;;14.10;34.00;;;;;;10440572;28;20221;-71
2022/12/29 20:03:12;;;;;;;4.30;3.90;;;14.10;34.00;;;;;;10442970;28;20225;-71
2022/12/29 20:08:15;;;;;;;6.07;5.00;;;14.00;33.90;;;;;;10442528;28;20240;-71
2022/12/29 20:13:19;;;;;;;4.07;3.50;;;14.00;34.10;;;;;;10440227;28;20305;-71
2022/12/29 20:18:22;;;;;;;3.07;2.63;;;13.90;34.10;;;;;;10436622;28;20643;-71
2022/12/29 20:23:32;;;;;;;3.20;2.90;;;13.90;34.30;;;;;;10440577;28;20281;-70
2022/12/29 20:28:36;;;;;;;3.67;3.37;;;13.90;34.40;;;;;;10441048;28;20221;-71
2022/12/29 20:33:39;;;;;;;2.93;2.60;;;13.80;34.40;;;;;;10442450;28;20705;-71
2022/12/29 20:38:43;;;;;;;2.73;2.40;;;13.80;34.40;;;;;;10436099;28;20789;-71
2022/12/29 20:43:48;;;;;;;3.50;2.20;;;13.80;34.50;;;;;;10442189;28;20279;-71
2022/12/29 20:48:52;;;;;;;1.90;1.70;;;13.80;34.60;;;;;;10436110;28;20613;-71
2022/12/29 20:53:55;;;;;;;2.13;1.73;;;13.80;34.60;;;;;;10441930;28;20221;-71
2022/12/29 20:58:59;;;;;;;1.90;1.70;;;13.80;34.70;;;;;;10436804;28;20549;-71
2022/12/29 21:04:22;;;;;;;1.93;1.70;;;13.90;34.70;;;;;;10438735;28;20239;-71
2022/12/29 21:09:25;;;;;;;1.90;1.67;;;14.00;34.60;;;;;;10436630;28;20870;-71
2022/12/29 21:14:30;;;;;;;2.13;2.00;;;14.00;34.50;;;;;;10437890;28;20232;-71
2022/12/29 21:19:33;;;;;;;2.00;1.80;;;13.90;34.30;;;;;;10437191;28;20232;-71
2022/12/29 21:24:37;;;;;;;2.10;1.60;;;14.00;34.50;;;;;;10436955;28;20234;-71
2022/12/29 21:29:41;;;;;;;2.10;1.90;;;13.90;34.60;;;;;;10436616;28;20244;-71
2022/12/29 21:34:46;;;;;;;2.83;1.80;;;13.90;34.70;;;;;;10441102;28;20713;-71
2022/12/29 21:39:49;;;;;;;1.80;1.70;;;13.90;34.60;;;;;;10437719;28;20294;-71
2022/12/29 21:50:22;;;;;;;1.87;1.67;;;13.80;34.70;;;;;;10436757;28;20259;-71
2022/12/29 21:55:25;;;;;;;1.73;1.63;;;13.80;34.70;;;;;;10436243;28;20727;-71
2022/12/29 22:16:33;;;;;;;3.80;3.40;;;13.60;34.80;;;;;;10438594;28;20282;-74
2022/12/29 22:21:36;;;;;;;5.23;4.80;;;13.50;35.10;;;;;;10437134;28;20229;-74
2022/12/29 22:26:39;;;;;;;3.83;3.53;;;13.40;35.20;;;;;;10436811;28;20267;-74
2022/12/29 22:31:43;;;;;;;7.43;5.23;;;13.30;35.40;;;;;;10436395;28;20616;-74
2022/12/29 22:36:46;;;;;;;4.43;3.60;;;13.20;35.80;;;;;;10436771;28;20236;-74
2022/12/29 22:41:50;;;;;;;2.57;2.37;;;13.20;35.70;;;;;;10433078;28;20232;-74
2022/12/29 22:46:54;;;;;;;2.77;2.27;;;13.20;36.00;;;;;;10436514;28;20654;-74
2022/12/29 22:51:57;;;;;;;2.30;2.10;;;13.10;36.40;;;;;;10436683;28;20216;-68
2022/12/29 22:57:00;;;;;;;2.93;2.30;;;13.00;36.30;;;;;;10434017;28;20217;-68
2022/12/29 23:02:05;;;;;;;2.60;2.20;;;13.00;36.50;;;;;;10435859;28;20228;-68
2022/12/29 23:07:08;;;;;;;2.33;2.13;;;12.90;37.30;;;;;;10434563;28;20244;-68
2022/12/29 23:12:11;;;;;;;4.07;2.40;;;12.80;36.90;;;;;;10433570;28;20240;-68
2022/12/29 23:17:16;;;;;;;3.60;2.27;;;12.70;37.20;;;;;;10434309;28;20578;-68
2022/12/29 23:22:19;;;;;;;3.93;2.27;;;12.60;37.80;;;;;;10437361;28;20229;-68
2022/12/29 23:27:22;;;;;;;3.07;1.80;;;12.50;37.70;;;;;;10444343;28;20298;-68
2022/12/29 23:32:27;;;;;;;1.90;1.60;;;12.40;37.90;;;;;;10442636;28;20221;-68
2022/12/29 23:37:30;;;;;;;2.17;1.40;;;12.30;38.50;;;;;;10443839;28;20233;-68
2022/12/29 23:42:33;;;;;;;1.60;1.50;;;12.10;38.20;;;;;;10441396;28;20231;-68
2022/12/29 23:47:38;;;;;;;1.40;1.10;;;12.00;38.40;;;;;;10443366;28;20538;-68
2022/12/29 23:52:41;;;;;;;0.93;0.93;;;11.90;38.80;;;;;;10438153;28;20226;-68
2022/12/29 23:57:44;;;;;;;1.57;0.90;;;11.90;38.50;;;;;;10439075;28;20224;-68
